Bordeaux-Mérignac Airport

LFBD · Nouvelle-Aquitaine, 法国

2022年10月5日

时间 代码 天气 温度 能见度 天花板 METAR/SPECI
19:30
V
19 °C 10 km+ - 300° 300° 8 kt METAR LFBD 051730Z AUTO 30008KT CAVOK 19/15 Q1024 NOSIG
19:00
V
20 °C 10 km+ - 290° 290° 12 kt METAR LFBD 051700Z AUTO 29012KT CAVOK 20/15 Q1024 NOSIG
18:30
V
21 °C 10 km+ - 290° 290° 9 kt METAR LFBD 051630Z AUTO 29009KT CAVOK 21/15 Q1023 NOSIG
18:00
V
23 °C 10 km+ - 310° 310° 10 kt METAR LFBD 051600Z AUTO 31010KT CAVOK 23/15 Q1022 NOSIG
17:30
V
24 °C 10 km+ - 320° 320° 12 kt METAR LFBD 051530Z AUTO 32012KT CAVOK 24/15 Q1022 NOSIG
17:00
V
25 °C 10 km+ - 280° 280° 10 kt METAR LFBD 051500Z AUTO 28010KT 250V310 CAVOK 25/15 Q1022 NOSIG
16:30
V
26 °C 10 km+ - 250° 250° 10 kt METAR LFBD 051430Z AUTO 25010KT 220V280 CAVOK 26/13 Q1021 NOSIG
16:00
V
26 °C 10 km+ - 240° 240° 9 kt METAR LFBD 051400Z AUTO 24009KT 200V270 CAVOK 26/14 Q1021 NOSIG
15:30
V
27 °C 10 km+ - 260° 260° 9 kt METAR LFBD 051330Z AUTO 26009KT 210V290 CAVOK 27/13 Q1021 NOSIG
15:00
V
27 °C 10 km+ - 270° 270° 8 kt METAR LFBD 051300Z AUTO 27008KT 230V310 CAVOK 27/13 Q1021 NOSIG
14:30
V
27 °C 10 km+ - 240° 240° 9 kt METAR LFBD 051230Z AUTO 24009KT 210V270 CAVOK 27/12 Q1021 NOSIG
14:00
V
26 °C 10 km+ - 170° 170° 5 kt METAR LFBD 051200Z AUTO 17005KT 130V250 CAVOK 26/14 Q1021 NOSIG
13:30
V
25 °C 10 km+ - 170° 170° 5 kt METAR LFBD 051130Z AUTO 17005KT 120V230 CAVOK 25/14 Q1021 NOSIG
13:00
V
23 °C 10 km+ - 140° 140° 5 kt METAR LFBD 051100Z AUTO 14005KT 100V190 CAVOK 23/14 Q1021 NOSIG
12:30
V
21 °C 10 km+ - 150° 150° 5 kt METAR LFBD 051030Z AUTO 15005KT 130V190 CAVOK 21/14 Q1021 NOSIG
12:00
V
20 °C 10 km+ - 130° 130° 4 kt METAR LFBD 051000Z AUTO 13004KT 090V180 CAVOK 20/15 Q1021 NOSIG
11:30
V
17 °C 10 km+ - 130° 130° 3 kt METAR LFBD 050930Z AUTO 13003KT 090V170 CAVOK 17/14 Q1021 BECMG 23010KT
11:00
V
15 °C 10 km+ - 120° 120° 4 kt METAR LFBD 050900Z AUTO 12004KT 090V160 9999 FEW004 15/14 Q1021 NOSIG
10:30
L
14 °C 5 km 200 ft 110° 110° 4 kt METAR LFBD 050830Z AUTO 11004KT 5000 BR BKN002 14/14 Q1021 BECMG NSC
10:00
L
14 °C 400 m - Var Var 3 kt METAR LFBD 050800Z AUTO VRB03KT 0500 0400 R23/0800U R05/0550U R29/1800U FG VV/// 14/13 Q1021 BECMG CAVOK
09:30
L
13 °C 250 m - 120° 120° 3 kt METAR LFBD 050730Z AUTO 12003KT 0300 0250 R23/0350U R05/0350N R29/0375N FG VV/// 13/13 Q1021 BECMG CAVOK
09:00
L
13 °C 200 m - 130° 130° 4 kt METAR LFBD 050700Z AUTO 13004KT 0300 0200 R23/0250N R05/0500N R29/0350N FG VV/// 13/13 Q1021 BECMG CAVOK
08:30
L
13 °C 250 m - 110° 110° 3 kt METAR LFBD 050630Z AUTO 11003KT 0250 R23/0300N R05/0300N R29/0550U FG VV/// 13/13 Q1021 BECMG CAVOK
08:00
L
13 °C 300 m - 120° 120° 2 kt METAR LFBD 050600Z AUTO 12002KT 0350 0300 R23/0375N R05/0600N R29/0400N FG VV/// 13/13 Q1021 TEMPO 3000 BR
07:30
L
13 °C 350 m - Var 000° 0 kt METAR LFBD 050530Z AUTO 00000KT 0600 0350 R23/0400N R05/0800N R29/0750N FG VV/// 13/13 Q1021 TEMPO 3000 BR
07:00
L
14 °C 450 m - 130° 130° 2 kt METAR LFBD 050500Z AUTO 13002KT 0600 0450 R23/0650N R05/0550N R29/0900U FG VV/// 14/13 Q1020 TEMPO 3000 BR
06:30
L
14 °C 300 m - Var Var 2 kt METAR LFBD 050430Z AUTO VRB02KT 0350 0300 R23/0325N R05/0400N R29/0550N FG VV/// 14/14 Q1020 TEMPO 3000 BR
06:00
L
14 °C 200 m - Var 000° 0 kt METAR LFBD 050400Z AUTO 00000KT 0300 0200 R23/0250N R05/0350N R29/0375N FG VV/// 14/14 Q1020 NOSIG
05:30
L
14 °C 250 m - 130° 130° 2 kt METAR LFBD 050330Z AUTO 13002KT 0300 0250 R23/0300N R05/0375N R29/0375N FG VV/// 14/14 Q1020 NOSIG
05:00
L
14 °C 200 m - 150° 150° 2 kt METAR LFBD 050300Z AUTO 15002KT 0300 0200 R23/0225N R05/0350N R29/0375N FG VV/// 14/14 Q1020 NOSIG
04:30
L
14 °C 200 m - Var 000° 0 kt METAR LFBD 050230Z AUTO 00000KT 0300 0200 R23/0200N R05/0325N R29/0350N FG VV/// 14/14 Q1021 NOSIG
04:00
L
13 °C 250 m - 250° 250° 3 kt METAR LFBD 050200Z AUTO 25003KT 0300 0250 R23/0350N R05/0300N R29/0375N FG VV/// 13/13 Q1021 NOSIG
03:30
L
13 °C 300 m - 250° 250° 4 kt METAR LFBD 050130Z AUTO 25004KT 0600 0300 R23/0750N R05/0375N R29/0900U FG VV/// 13/12 Q1021 TEMPO 0300 FG
03:00
L
13 °C 600 m - 250° 250° 5 kt METAR LFBD 050100Z AUTO 25005KT 9999 0600 R23/1800D R05/0750D R29/P2300 BCFG SCT002 13/12 Q1021 TEMPO 0300 FG VV///
02:30
V
13 °C 10 km+ - 230° 230° 2 kt METAR LFBD 050030Z AUTO 23002KT CAVOK 13/12 Q1021 TEMPO 0300 FG VV///
02:00
V
14 °C 10 km+ - 260° 260° 3 kt METAR LFBD 050000Z AUTO 26003KT CAVOK 14/12 Q1021 BECMG 4000 BR
01:30
V
14 °C 10 km+ - 240° 240° 2 kt METAR LFBD 042330Z AUTO 24002KT CAVOK 14/13 Q1021 TEMPO 0300 FG VV///
01:00
L
14 °C 900 m - 250° 250° 3 kt METAR LFBD 042300Z AUTO 25003KT 9999 0900 R23/P2300 R05/1400D R29/P2300 BCFG NSC 14/12 Q1022 BECMG 4000 BR
00:30
I
15 °C 2,5 km - 250° 250° 3 kt METAR LFBD 042230Z AUTO 25003KT 9999 2500 NSC 15/13 Q1022 BECMG 4000 BR
00:00
V
15 °C 10 km+ - 130° 130° 2 kt METAR LFBD 042200Z AUTO 13002KT CAVOK 15/13 Q1022 BECMG 4000 BR

2022年10月4日

时间 代码 天气 温度 能见度 天花板 METAR/SPECI
23:30
V
15 °C 10 km+ - 240° 240° 2 kt METAR LFBD 042130Z AUTO 24002KT CAVOK 15/13 Q1022 TEMPO 0300 FG VV///
23:00
V
16 °C 10 km+ - Var 000° 0 kt METAR LFBD 042100Z AUTO 00000KT CAVOK 16/13 Q1022 TEMPO 0300 FG VV///
22:30
V
16 °C 10 km+ - 120° 120° 3 kt METAR LFBD 042030Z AUTO 12003KT CAVOK 16/14 Q1022 TEMPO 0300 FG VV///
22:00
V
17 °C 10 km+ - Var 000° 0 kt METAR LFBD 042000Z AUTO 00000KT CAVOK 17/13 Q1022 BECMG 4000 BR OVC002
21:30
V
19 °C 10 km+ - Var Var 2 kt METAR LFBD 041930Z AUTO VRB02KT CAVOK 19/14 Q1022 BECMG 4000 BR OVC002
21:00
V
19 °C 10 km+ - 290° 290° 4 kt METAR LFBD 041900Z AUTO 29004KT CAVOK 19/14 Q1022 BECMG 4000 BR OVC002
20:30
V
20 °C 10 km+ - 320° 320° 3 kt METAR LFBD 041830Z AUTO 32003KT CAVOK 20/14 Q1021 BECMG 4000 BR OVC002
20:00
V
22 °C 10 km+ - 280° 280° 4 kt METAR LFBD 041800Z AUTO 28004KT CAVOK 22/14 Q1021 NOSIG
19:30
V
23 °C 10 km+ - 300° 300° 5 kt METAR LFBD 041730Z AUTO 30005KT CAVOK 23/14 Q1021 NOSIG
19:00
V
24 °C 10 km+ - 290° 290° 6 kt METAR LFBD 041700Z AUTO 29006KT CAVOK 24/14 Q1021 NOSIG
18:30
V
25 °C 10 km+ - 290° 290° 6 kt METAR LFBD 041630Z AUTO 29006KT 260V320 CAVOK 25/14 Q1020 NOSIG
18:00
V
25 °C 10 km+ - 310° 310° 4 kt METAR LFBD 041600Z AUTO 31004KT 250V030 CAVOK 25/14 Q1020 NOSIG
17:30
V
26 °C 10 km+ - 290° 290° 5 kt METAR LFBD 041530Z AUTO 29005KT 230V350 CAVOK 26/14 Q1020 NOSIG
17:00
V
26 °C 10 km+ - 320° 320° 9 kt METAR LFBD 041500Z AUTO 32009KT CAVOK 26/14 Q1020 NOSIG
16:30
V
26 °C 10 km+ - 290° 290° 5 kt METAR LFBD 041430Z AUTO 29005KT 170V330 CAVOK 26/13 Q1021 NOSIG
16:00
V
26 °C 10 km+ - 310° 310° 6 kt METAR LFBD 041400Z AUTO 31006KT 270V020 CAVOK 26/13 Q1020 NOSIG
15:30
V
25 °C 10 km+ - Var Var 3 kt METAR LFBD 041330Z AUTO VRB03KT CAVOK 25/13 Q1021 NOSIG
15:00
V
25 °C 10 km+ - Var Var 2 kt METAR LFBD 041300Z AUTO VRB02KT CAVOK 25/13 Q1021 NOSIG
14:30
V
25 °C 10 km+ - Var Var 2 kt METAR LFBD 041230Z AUTO VRB02KT CAVOK 25/13 Q1021 NOSIG
14:00
V
24 °C 10 km+ - 180° 180° 3 kt METAR LFBD 041200Z AUTO 18003KT 070V220 CAVOK 24/14 Q1021 NOSIG
13:30
V
23 °C 10 km+ - 010° 010° 3 kt METAR LFBD 041130Z AUTO 01003KT 270V080 CAVOK 23/13 Q1021 NOSIG
13:00
V
23 °C 10 km+ - Var Var 3 kt METAR LFBD 041100Z AUTO VRB03KT CAVOK 23/14 Q1022 NOSIG
12:30
V
23 °C 10 km+ - Var Var 2 kt METAR LFBD 041030Z AUTO VRB02KT CAVOK 23/14 Q1022 NOSIG
12:00
V
22 °C 10 km+ - Var Var 2 kt METAR LFBD 041000Z AUTO VRB02KT CAVOK 22/14 Q1022 NOSIG
11:30
V
21 °C 10 km+ - Var Var 1 kt METAR LFBD 040930Z AUTO VRB01KT CAVOK 21/14 Q1022 NOSIG
11:00
V
19 °C 10 km+ - Var 000° 0 kt METAR LFBD 040900Z AUTO 00000KT CAVOK 19/14 Q1022 NOSIG
10:30
V
18 °C 10 km+ - Var Var 1 kt METAR LFBD 040830Z AUTO VRB01KT CAVOK 18/14 Q1022 NOSIG
10:00
V
15 °C 10 km+ - Var 000° 0 kt METAR LFBD 040800Z AUTO 00000KT CAVOK 15/14 Q1022 NOSIG
09:30
V
14 °C 10 km+ - 210° 210° 2 kt METAR LFBD 040730Z AUTO 21002KT CAVOK 14/13 Q1021 NOSIG
09:00
V
12 °C 10 km+ - Var 000° 0 kt METAR LFBD 040700Z AUTO 00000KT CAVOK 12/12 Q1021 TEMPO 0800 FG VV///
08:30
V
10 °C 10 km+ - Var 000° 0 kt METAR LFBD 040630Z AUTO 00000KT CAVOK 10/10 Q1021 TEMPO 0800 FG VV///
08:00
L
10 °C 800 m - Var 000° 0 kt METAR LFBD 040600Z AUTO 00000KT 9999 0800 R23/1400D R05/1200D R29/P2300 BCFG NSC 10/10 Q1021 TEMPO 0800 FG VV///
07:30
L
10 °C 1,1 km - Var 000° 0 kt METAR LFBD 040530Z AUTO 00000KT 9999 1100 R23/P2300 R05/1400D R29/P2300 NSC 10/10 Q1020 TEMPO 0300 FG VV///
07:00
L
10 °C 700 m - Var 000° 0 kt METAR LFBD 040500Z AUTO 00000KT 9999 0700 R23/P2300 R05/0900D R29/P2300 BCFG NSC 10/10 Q1020 TEMPO 0300 FG VV///
06:30
L
11 °C 800 m - Var 000° 0 kt METAR LFBD 040430Z AUTO 00000KT 6000 0800 R23/1500D R05/1000N R29/1300U BCFG NSC 11/10 Q1020 TEMPO 0300 FG VV///
06:00
L
11 °C 1 km - Var 000° 0 kt METAR LFBD 040400Z AUTO 00000KT 9999 1000 R23/P2300 R05/1300N R29/P2300 NSC 11/10 Q1020 TEMPO 0300 FG VV///
05:30
L
11 °C 1,1 km - Var 000° 0 kt METAR LFBD 040330Z AUTO 00000KT 7000 1100 R23/P2300 R05/1500D R29/1500U NSC 11/10 Q1020 TEMPO 0300 FG VV///
05:00
L
11 °C 600 m - Var 000° 0 kt METAR LFBD 040300Z AUTO 00000KT 9999 0600 R23/P2300 R05/0750D R29/P2300 BCFG NSC 11/11 Q1020 TEMPO 0300 FG VV///
04:30
L
12 °C 750 m - Var 000° 0 kt METAR LFBD 040230Z AUTO 00000KT 4500 0750 R23/P2300 R05/1200U R29/1500U BCFG NSC 12/10 Q1020 TEMPO 0300 FG VV///
04:00
L
12 °C 800 m - Var 000° 0 kt METAR LFBD 040200Z AUTO 00000KT 9999 0800 R23/1800U R05/0800U R29/P2300 BCFG NSC 12/11 Q1021 TEMPO 0300 FG VV///
03:30
I
13 °C 1,5 km - Var 000° 0 kt METAR LFBD 040130Z AUTO 00000KT 9999 1500 NSC 13/11 Q1021 TEMPO 0300 FG VV///
03:00
L
13 °C 900 m - Var 000° 0 kt METAR LFBD 040100Z AUTO 00000KT 9999 0900 R23/P2300 R05/0900N R29/P2300 BCFG NSC 13/12 Q1021 TEMPO 3000 BR
02:30
L
14 °C 1 km - Var 000° 0 kt METAR LFBD 040030Z AUTO 00000KT 9999 1000 R23/P2300 R05/1000U R29/P2300 NSC 14/12 Q1021 TEMPO 3000 BR
02:00
L
14 °C 1 km - Var 000° 0 kt METAR LFBD 040000Z AUTO 00000KT 9999 1000 R23/P2300 R05/1300N R29/P2300 NSC 14/12 Q1021 TEMPO 3000 BR
01:30
V
15 °C 10 km+ - 020° 020° 2 kt METAR LFBD 032330Z AUTO 02002KT CAVOK 15/13 Q1021 TEMPO 3000 BR
01:00
V
15 °C 10 km+ - 020° 020° 3 kt METAR LFBD 032300Z AUTO 02003KT CAVOK 15/13 Q1021 TEMPO 3000 BR
00:30
V
15 °C 10 km+ - 010° 010° 3 kt METAR LFBD 032230Z AUTO 01003KT CAVOK 15/13 Q1021 TEMPO 3000 BR
00:00
V
16 °C 10 km+ - 360° 360° 3 kt METAR LFBD 032200Z AUTO 36003KT CAVOK 16/13 Q1022 NOSIG

2022年10月3日

时间 代码 天气 温度 能见度 天花板 METAR/SPECI
23:30
V
16 °C 10 km+ - 010° 010° 4 kt METAR LFBD 032130Z AUTO 01004KT 360V070 CAVOK 16/13 Q1022 NOSIG
23:00
V
16 °C 10 km+ - 010° 010° 4 kt METAR LFBD 032100Z AUTO 01004KT 340V040 CAVOK 16/13 Q1022 NOSIG
22:30
V
16 °C 10 km+ - Var Var 2 kt METAR LFBD 032030Z AUTO VRB02KT CAVOK 16/13 Q1022 NOSIG
22:00
V
16 °C 10 km+ - Var Var 2 kt METAR LFBD 032000Z AUTO VRB02KT CAVOK 16/13 Q1022 NOSIG
21:30
V
17 °C 10 km+ - Var Var 1 kt METAR LFBD 031930Z AUTO VRB01KT CAVOK 17/13 Q1021 NOSIG
21:00
V
18 °C 10 km+ - Var Var 1 kt METAR LFBD 031900Z AUTO VRB01KT CAVOK 18/13 Q1021 NOSIG
20:30
V
19 °C 10 km+ - 340° 340° 4 kt METAR LFBD 031830Z AUTO 34004KT 290V070 CAVOK 19/13 Q1021 NOSIG
20:00
V
20 °C 10 km+ - Var Var 2 kt METAR LFBD 031800Z AUTO VRB02KT CAVOK 20/13 Q1021 NOSIG
19:30
V
22 °C 10 km+ - 030° 030° 4 kt METAR LFBD 031730Z AUTO 03004KT 340V040 CAVOK 22/13 Q1021 NOSIG
19:00
V
23 °C 10 km+ - 030° 030° 5 kt METAR LFBD 031700Z AUTO 03005KT CAVOK 23/13 Q1021 NOSIG
18:30
V
23 °C 10 km+ - 030° 030° 7 kt METAR LFBD 031630Z AUTO 03007KT CAVOK 23/13 Q1021 NOSIG
18:00
V
23 °C 10 km+ - 030° 030° 7 kt METAR LFBD 031600Z AUTO 03007KT 330V070 CAVOK 23/13 Q1021 NOSIG
17:30
V
24 °C 10 km+ - 020° 020° 7 kt METAR LFBD 031530Z AUTO 02007KT 360V080 CAVOK 24/13 Q1021 NOSIG
17:00
V
24 °C 10 km+ - 020° 020° 8 kt METAR LFBD 031500Z AUTO 02008KT 350V070 CAVOK 24/13 Q1022 NOSIG
较旧的数据

我们和第三方通过cookies跟踪您在我们网站上的上网行为。如果您继续,我们认为您同意我们的cookie政策。 了解更多